Terminal Aerodrome Forecast
Issued by NWS

Home | Current Version | Previous Version | Text Only | Print | Product List | Glossary Off
Versions: 1 2 3 4 5 6 7 8 9 10 11 12 13

000
FTUS43 KFGF 141700
TAFBJI
TAF
KBJI 141724Z 1418/1518 33015G24KT P6SM BKN040
     FM150000 32012KT P6SM FEW040
     FM150400 VRB05KT P6SM SKC=

USA.gov is the U.S. government's official web portal to all federal, state and local government web resources and services.